Time,TemperatureF,DewpointF,PressureIn,WindDirection,WindDirectionDegrees,WindSpeedMPH,WindSpeedGustMPH,Humidity,HourlyPrecipIn,Conditions,Clouds,dailyrainin,SoftwareType,DateUTC
2013-01-19 00:01:00,38.7,29.4,30.20,West,265,0.0,0.0,69,0.00,,,0.00,Wunderground v.1.15,2013-01-19 06:01:00,
2013-01-19 00:06:00,38.6,29.3,30.19,West,266,0.0,0.0,69,0.00,,,0.00,Wunderground v.1.15,2013-01-19 06:06:00,
2013-01-19 00:11:00,38.4,29.5,30.20,SSW,204,0.0,0.0,70,0.00,,,0.00,Wunderground v.1.15,2013-01-19 06:11:00,
2013-01-19 00:21:00,38.4,29.5,30.19,South,174,0.0,0.0,70,0.00,,,0.00,Wunderground v.1.15,2013-01-19 06:21:00,
2013-01-19 00:26:00,38.1,29.5,30.19,South,176,0.0,0.0,71,0.00,,,0.00,Wunderground v.1.15,2013-01-19 06:26:00,
2013-01-19 00:31:00,38.2,29.6,30.19,SE,139,0.0,0.0,71,0.00,,,0.00,Wunderground v.1.15,2013-01-19 06:31:00,
2013-01-19 00:36:00,38.1,29.2,30.19,SSE,153,0.0,0.0,70,0.00,,,0.00,Wunderground v.1.15,2013-01-19 06:36:00,
2013-01-19 00:41:00,37.9,29.3,30.19,SSE,152,0.0,0.0,71,0.00,,,0.00,Wunderground v.1.15,2013-01-19 06:41:00,
2013-01-19 00:46:00,37.9,29.3,30.19,SSE,152,0.0,0.0,71,0.00,,,0.00,Wunderground v.1.15,2013-01-19 06:46:00,
2013-01-19 00:51:00,38.0,29.4,30.19,SSE,153,0.0,0.0,71,0.00,,,0.00,Wunderground v.1.15,2013-01-19 06:51:00,
2013-01-19 00:56:00,38.1,29.5,30.19,WNW,290,0.0,0.0,71,0.00,,,0.00,Wunderground v.1.15,2013-01-19 06:56:00,
2013-01-19 01:06:00,38.1,29.5,30.19,WNW,290,0.0,0.0,71,0.00,,,0.00,Wunderground v.1.15,2013-01-19 07:06:00,
2013-01-19 01:11:00,37.9,29.3,30.19,WNW,290,0.0,0.0,71,0.00,,,0.00,Wunderground v.1.15,2013-01-19 07:11:00,
2013-01-19 01:16:00,37.8,29.2,30.19,WNW,290,0.0,0.0,71,0.00,,,0.00,Wunderground v.1.15,2013-01-19 07:16:00,
2013-01-19 01:21:00,37.8,29.2,30.19,WNW,288,0.0,0.0,71,0.00,,,0.00,Wunderground v.1.15,2013-01-19 07:21:00,
2013-01-19 01:31:00,37.8,29.6,30.19,SSE,157,0.0,0.0,72,0.00,,,0.00,Wunderground v.1.15,2013-01-19 07:31:00,
2013-01-19 01:36:00,37.9,29.3,30.19,SSE,157,0.0,0.0,71,0.00,,,0.00,Wunderground v.1.15,2013-01-19 07:36:00,
2013-01-19 01:41:00,37.9,29.3,30.19,SSE,158,0.0,0.0,71,0.00,,,0.00,Wunderground v.1.15,2013-01-19 07:41:00,
2013-01-19 01:46:00,37.9,29.3,30.19,SSE,158,0.0,0.0,71,0.00,,,0.00,Wunderground v.1.15,2013-01-19 07:46:00,
2013-01-19 01:51:00,37.9,29.3,30.19,SSE,158,0.0,0.0,71,0.00,,,0.00,Wunderground v.1.15,2013-01-19 07:51:00,
2013-01-19 01:56:00,37.9,29.3,30.20,SSE,158,0.0,0.0,71,0.00,,,0.00,Wunderground v.1.15,2013-01-19 07:56:00,
2013-01-19 02:01:00,37.8,29.2,30.20,SSE,158,0.0,0.0,71,0.00,,,0.00,Wunderground v.1.15,2013-01-19 08:01:00,
2013-01-19 02:06:00,37.7,29.1,30.20,SSE,158,0.0,0.0,71,0.00,,,0.00,Wunderground v.1.15,2013-01-19 08:06:00,
2013-01-19 02:11:00,37.6,29.0,30.20,West,273,0.0,0.0,71,0.00,,,0.00,Wunderground v.1.15,2013-01-19 08:11:00,
2013-01-19 02:16:00,37.4,29.2,30.20,West,273,0.0,0.0,72,0.00,,,0.00,Wunderground v.1.15,2013-01-19 08:16:00,
2013-01-19 02:21:00,37.4,29.2,30.19,West,271,0.0,0.0,72,0.00,,,0.00,Wunderground v.1.15,2013-01-19 08:21:00,
2013-01-19 02:31:00,37.2,29.0,30.19,SW,218,0.0,0.0,72,0.00,,,0.00,Wunderground v.1.15,2013-01-19 08:31:00,
2013-01-19 02:36:00,37.0,28.8,30.19,SW,215,0.0,0.0,72,0.00,,,0.00,Wunderground v.1.15,2013-01-19 08:36:00,
2013-01-19 02:46:00,37.2,29.0,30.19,SW,217,0.0,0.0,72,0.00,,,0.00,Wunderground v.1.15,2013-01-19 08:46:00,
2013-01-19 02:51:00,37.2,29.0,30.19,SSE,158,0.0,0.0,72,0.00,,,0.00,Wunderground v.1.15,2013-01-19 08:51:00,
2013-01-19 02:56:00,37.2,28.7,30.18,SSE,158,0.0,0.0,71,0.00,,,0.00,Wunderground v.1.15,2013-01-19 08:56:00,
2013-01-19 03:06:00,37.0,28.8,30.18,SSE,158,0.0,0.0,72,0.00,,,0.00,Wunderground v.1.15,2013-01-19 09:06:00,
2013-01-19 03:11:00,37.1,28.6,30.18,SSE,153,0.0,0.0,71,0.00,,,0.00,Wunderground v.1.15,2013-01-19 09:11:00,
2013-01-19 03:16:00,37.0,28.5,30.18,SSE,152,0.0,0.0,71,0.00,,,0.00,Wunderground v.1.15,2013-01-19 09:16:00,
2013-01-19 03:26:00,36.9,28.4,30.18,SSE,152,0.0,0.0,71,0.00,,,0.00,Wunderground v.1.15,2013-01-19 09:26:00,
2013-01-19 03:36:00,36.8,28.3,30.17,SSE,152,0.0,0.0,71,0.00,,,0.00,Wunderground v.1.15,2013-01-19 09:36:00,
2013-01-19 03:41:00,36.8,28.3,30.17,South,172,0.0,0.0,71,0.00,,,0.00,Wunderground v.1.15,2013-01-19 09:41:00,
2013-01-19 03:51:00,36.8,28.3,30.17,SSW,207,0.0,0.0,71,0.00,,,0.00,Wunderground v.1.15,2013-01-19 09:51:00,
2013-01-19 03:56:00,36.9,28.0,30.17,SSW,207,0.0,0.0,70,0.00,,,0.00,Wunderground v.1.15,2013-01-19 09:56:00,
2013-01-19 04:01:00,37.0,28.1,30.17,SW,222,0.0,0.0,70,0.00,,,0.00,Wunderground v.1.15,2013-01-19 10:01:00,
2013-01-19 04:06:00,37.1,28.2,30.17,SW,224,0.0,0.0,70,0.00,,,0.00,Wunderground v.1.15,2013-01-19 10:06:00,
2013-01-19 04:11:00,37.1,28.2,30.16,SW,224,0.0,0.0,70,0.00,,,0.00,Wunderground v.1.15,2013-01-19 10:11:00,
2013-01-19 04:16:00,37.1,28.2,30.16,South,190,0.0,0.0,70,0.00,,,0.00,Wunderground v.1.15,2013-01-19 10:16:00,
2013-01-19 04:21:00,37.1,28.2,30.17,South,190,0.0,0.0,70,0.00,,,0.00,Wunderground v.1.15,2013-01-19 10:21:00,
2013-01-19 04:26:00,37.2,28.0,30.16,SSW,200,0.0,0.0,69,0.00,,,0.00,Wunderground v.1.15,2013-01-19 10:26:00,
2013-01-19 04:36:00,37.3,28.1,30.16,WSW,246,0.0,0.0,69,0.00,,,0.00,Wunderground v.1.15,2013-01-19 10:36:00,
2013-01-19 04:41:00,37.4,28.2,30.16,WSW,245,0.0,0.0,69,0.00,,,0.00,Wunderground v.1.15,2013-01-19 10:41:00,
2013-01-19 04:46:00,37.4,28.2,30.16,WSW,238,0.0,0.0,69,0.00,,,0.00,Wunderground v.1.15,2013-01-19 10:46:00,
2013-01-19 04:51:00,37.4,28.2,30.16,WSW,238,0.0,0.0,69,0.00,,,0.00,Wunderground v.1.15,2013-01-19 10:51:00,
2013-01-19 04:56:00,37.4,28.2,30.15,WSW,238,0.0,0.0,69,0.00,,,0.00,Wunderground v.1.15,2013-01-19 10:56:00,
2013-01-19 05:01:00,37.3,28.1,30.15,WSW,238,0.0,0.0,69,0.00,,,0.00,Wunderground v.1.15,2013-01-19 11:01:00,
2013-01-19 05:06:00,37.1,27.9,30.15,WSW,238,0.0,0.0,69,0.00,,,0.00,Wunderground v.1.15,2013-01-19 11:06:00,
2013-01-19 05:11:00,36.9,28.0,30.15,WSW,238,0.0,0.0,70,0.00,,,0.00,Wunderground v.1.15,2013-01-19 11:11:00,
2013-01-19 06:51:00,36.1,27.9,30.13,SW,214,0.0,0.0,72,0.00,,,0.00,Wunderground v.1.15,2013-01-19 12:51:00,
2013-01-19 06:56:00,36.2,27.7,30.13,West,260,0.0,0.0,71,0.00,,,0.00,Wunderground v.1.15,2013-01-19 12:56:00,
2013-01-19 07:01:00,36.5,28.0,30.13,WSW,255,0.0,0.0,71,0.00,,,0.00,Wunderground v.1.15,2013-01-19 13:01:00,
2013-01-19 07:06:00,36.6,28.1,30.13,WSW,255,0.0,0.0,71,0.00,,,0.00,Wunderground v.1.15,2013-01-19 13:06:00,
2013-01-19 07:16:00,36.3,27.8,30.13,SSE,153,0.0,0.0,71,0.00,,,0.00,Wunderground v.1.15,2013-01-19 13:16:00,
2013-01-19 07:21:00,36.2,27.7,30.13,SSE,153,0.0,0.0,71,0.00,,,0.00,Wunderground v.1.15,2013-01-19 13:21:00,
2013-01-19 07:26:00,36.2,27.7,30.12,SSE,152,0.0,0.0,71,0.00,,,0.00,Wunderground v.1.15,2013-01-19 13:26:00,
2013-01-19 07:31:00,36.3,27.8,30.12,SSE,153,0.0,0.0,71,0.00,,,0.00,Wunderground v.1.15,2013-01-19 13:31:00,
2013-01-19 07:41:00,36.5,28.0,30.12,SSE,155,0.0,0.0,71,0.00,,,0.00,Wunderground v.1.15,2013-01-19 13:41:00,
2013-01-19 07:46:00,36.7,28.2,30.12,SSE,155,0.0,0.0,71,0.00,,,0.00,Wunderground v.1.15,2013-01-19 13:46:00,
2013-01-19 07:51:00,37.1,28.2,30.12,SSE,155,0.0,0.0,70,0.00,,,0.00,Wunderground v.1.15,2013-01-19 13:51:00,
2013-01-19 07:56:00,37.5,28.6,30.12,SSE,155,0.0,0.0,70,0.00,,,0.00,Wunderground v.1.15,2013-01-19 13:56:00,
2013-01-19 08:01:00,38.5,28.9,30.12,SSE,150,0.0,0.0,68,0.00,,,0.00,Wunderground v.1.15,2013-01-19 14:01:00,
2013-01-19 08:06:00,39.3,29.3,30.11,SSE,150,0.0,0.0,67,0.00,,,0.00,Wunderground v.1.15,2013-01-19 14:06:00,
2013-01-19 08:11:00,39.9,29.1,30.11,SE,132,0.0,0.0,65,0.00,,,0.00,Wunderground v.1.15,2013-01-19 14:11:00,
2013-01-19 08:16:00,40.2,29.0,30.11,SE,132,0.0,0.0,64,0.00,,,0.00,Wunderground v.1.15,2013-01-19 14:16:00,
2013-01-19 08:21:00,40.4,29.2,30.11,West,281,0.0,0.0,64,0.00,,,0.00,Wunderground v.1.15,2013-01-19 14:21:00,
2013-01-19 08:26:00,40.9,29.7,30.11,SSE,159,0.0,0.0,64,0.00,,,0.00,Wunderground v.1.15,2013-01-19 14:26:00,
2013-01-19 08:36:00,42.7,30.2,30.11,ESE,122,0.0,0.0,61,0.00,,,0.00,Wunderground v.1.15,2013-01-19 14:36:00,
2013-01-19 08:41:00,43.4,30.4,30.11,West,278,0.0,1.0,60,0.00,,,0.00,Wunderground v.1.15,2013-01-19 14:41:00,
2013-01-19 08:46:00,44.2,30.3,30.11,SE,141,1.0,1.0,58,0.00,,,0.00,Wunderground v.1.15,2013-01-19 14:46:00,
2013-01-19 08:51:00,45.0,30.2,30.11,SSE,160,1.0,1.0,56,0.00,,,0.00,Wunderground v.1.15,2013-01-19 14:51:00,
2013-01-19 09:01:00,45.9,30.6,30.11,South,186,0.0,1.0,55,0.00,,,0.00,Wunderground v.1.15,2013-01-19 15:01:00,
2013-01-19 09:06:00,46.3,30.5,30.11,SSE,155,0.0,1.0,54,0.00,,,0.00,Wunderground v.1.15,2013-01-19 15:06:00,
2013-01-19 09:11:00,46.9,30.6,30.11,ESE,109,0.0,1.0,53,0.00,,,0.00,Wunderground v.1.15,2013-01-19 15:11:00,
2013-01-19 09:16:00,47.3,30.5,30.11,SSW,208,0.0,1.0,52,0.00,,,0.00,Wunderground v.1.15,2013-01-19 15:16:00,
2013-01-19 09:21:00,47.9,30.6,30.11,SE,127,1.0,1.0,51,0.00,,,0.00,Wunderground v.1.15,2013-01-19 15:21:00,
2013-01-19 09:26:00,48.4,31.6,30.11,SSW,207,1.0,1.0,52,0.00,,,0.00,Wunderground v.1.15,2013-01-19 15:26:00,
2013-01-19 09:31:00,48.8,31.5,30.11,SE,141,0.0,0.0,51,0.00,,,0.00,Wunderground v.1.15,2013-01-19 15:31:00,
2013-01-19 09:36:00,49.5,31.6,30.11,ESE,119,0.0,1.0,50,0.00,,,0.00,Wunderground v.1.15,2013-01-19 15:36:00,
2013-01-19 09:41:00,50.1,31.7,30.11,SSE,155,0.0,1.0,49,0.00,,,0.00,Wunderground v.1.15,2013-01-19 15:41:00,
2013-01-19 09:46:00,50.5,31.5,30.10,South,179,1.0,1.0,48,0.00,,,0.00,Wunderground v.1.15,2013-01-19 15:46:00,
2013-01-19 09:51:00,51.2,31.6,30.10,WNW,283,1.0,1.0,47,0.00,,,0.00,Wunderground v.1.15,2013-01-19 15:51:00,
2013-01-19 09:56:00,51.6,32.0,30.10,South,172,0.0,1.0,47,0.00,,,0.00,Wunderground v.1.15,2013-01-19 15:56:00,
2013-01-19 10:01:00,52.2,32.0,30.10,South,169,0.0,0.0,46,0.00,,,0.00,Wunderground v.1.15,2013-01-19 16:01:00,
2013-01-19 10:06:00,52.9,32.1,30.10,West,274,0.0,0.0,45,0.00,,,0.00,Wunderground v.1.15,2013-01-19 16:06:00,
2013-01-19 10:11:00,53.6,32.2,30.10,WNW,300,1.0,1.0,44,0.00,,,0.00,Wunderground v.1.15,2013-01-19 16:11:00,
2013-01-19 10:16:00,54.2,32.2,30.10,West,271,1.0,1.0,43,0.00,,,0.00,Wunderground v.1.15,2013-01-19 16:16:00,
2013-01-19 10:21:00,54.8,32.7,30.09,ENE,57,1.0,1.0,43,0.00,,,0.00,Wunderground v.1.15,2013-01-19 16:21:00,
2013-01-19 10:26:00,55.5,32.8,30.09,South,188,1.0,2.0,42,0.00,,,0.00,Wunderground v.1.15,2013-01-19 16:26:00,
2013-01-19 10:31:00,56.0,33.2,30.08,West,274,1.0,1.0,42,0.00,,,0.00,Wunderground v.1.15,2013-01-19 16:31:00,
2013-01-19 10:36:00,56.5,32.4,30.08,West,267,1.0,1.0,40,0.00,,,0.00,Wunderground v.1.15,2013-01-19 16:36:00,
2013-01-19 10:41:00,56.8,32.7,30.07,WNW,297,1.0,1.0,40,0.00,,,0.00,Wunderground v.1.15,2013-01-19 16:41:00,
2013-01-19 10:46:00,57.2,33.7,30.07,ESE,119,1.0,1.0,41,0.00,,,0.00,Wunderground v.1.15,2013-01-19 16:46:00,
2013-01-19 10:56:00,58.1,33.2,30.06,NE,46,2.0,7.0,39,0.00,,,0.00,Wunderground v.1.15,2013-01-19 16:56:00,
2013-01-19 11:01:00,58.5,33.6,30.05,West,278,2.0,3.0,39,0.00,,,0.00,Wunderground v.1.15,2013-01-19 17:01:00,
2013-01-19 11:06:00,59.1,33.5,30.05,SW,214,3.0,3.0,38,0.00,,,0.00,Wunderground v.1.15,2013-01-19 17:06:00,
2013-01-19 11:11:00,59.6,33.3,30.05,SSW,200,2.0,2.0,37,0.00,,,0.00,Wunderground v.1.15,2013-01-19 17:11:00,
2013-01-19 11:16:00,60.0,34.3,30.04,NNE,33,2.0,2.0,38,0.00,,,0.00,Wunderground v.1.15,2013-01-19 17:16:00,
2013-01-19 11:31:00,60.8,34.3,30.03,WNW,288,2.0,2.0,37,0.00,,,0.00,Wunderground v.1.15,2013-01-19 17:31:00,
2013-01-19 11:36:00,61.2,34.0,30.02,SE,142,2.0,2.0,36,0.00,,,0.00,Wunderground v.1.15,2013-01-19 17:36:00,
2013-01-19 12:06:00,62.9,34.8,30.00,SSW,204,2.0,3.0,35,0.00,,,0.00,Wunderground v.1.15,2013-01-19 18:06:00,
2013-01-19 12:16:00,63.5,34.6,29.99,SSW,197,1.0,2.0,34,0.00,,,0.00,Wunderground v.1.15,2013-01-19 18:16:00,
2013-01-19 12:21:00,63.8,34.9,29.99,SE,125,1.0,1.0,34,0.00,,,0.00,Wunderground v.1.15,2013-01-19 18:21:00,
2013-01-19 12:41:00,63.8,34.1,29.98,NNW,327,2.0,2.0,33,0.00,,,0.00,Wunderground v.1.15,2013-01-19 18:41:00,
2013-01-19 12:51:00,64.3,34.6,29.97,NE,46,2.0,2.0,33,0.00,,,0.00,Wunderground v.1.15,2013-01-19 18:51:00,
2013-01-19 13:06:00,65.1,34.5,29.97,NW,319,2.0,2.0,32,0.00,,,0.00,Wunderground v.1.15,2013-01-19 19:06:00,
2013-01-19 13:11:00,65.3,34.7,29.97,NW,304,2.0,2.0,32,0.00,,,0.00,Wunderground v.1.15,2013-01-19 19:11:00,
2013-01-19 13:16:00,65.5,34.8,29.96,North,358,1.0,2.0,32,0.00,,,0.00,Wunderground v.1.15,2013-01-19 19:16:00,
2013-01-19 13:26:00,65.6,34.9,29.96,ESE,108,2.0,2.0,32,0.00,,,0.00,Wunderground v.1.15,2013-01-19 19:26:00,
2013-01-19 13:36:00,65.9,35.2,29.96,SE,133,2.0,2.0,32,0.00,,,0.00,Wunderground v.1.15,2013-01-19 19:36:00,
2013-01-19 13:46:00,66.1,34.6,29.95,WSW,250,2.0,2.0,31,0.00,,,0.00,Wunderground v.1.15,2013-01-19 19:46:00,
2013-01-19 14:21:00,67.2,33.8,29.95,SSW,211,1.0,1.0,29,0.00,,,0.00,Wunderground v.1.15,2013-01-19 20:21:00,
2013-01-19 14:31:00,67.0,34.5,29.94,NW,309,1.0,1.0,30,0.00,,,0.00,Wunderground v.1.15,2013-01-19 20:31:00,
2013-01-19 14:36:00,67.2,33.8,29.95,NW,320,0.0,4.0,29,0.00,,,0.00,Wunderground v.1.15,2013-01-19 20:36:00,
2013-01-19 14:46:00,67.3,33.9,29.94,West,268,1.0,4.0,29,0.00,,,0.00,Wunderground v.1.15,2013-01-19 20:46:00,
2013-01-19 15:01:00,67.4,34.0,29.95,SW,218,1.0,1.0,29,0.00,,,0.00,Wunderground v.1.15,2013-01-19 21:01:00,
2013-01-19 15:11:00,67.5,34.1,29.95,NW,318,1.0,1.0,29,0.00,,,0.00,Wunderground v.1.15,2013-01-19 21:11:00,
2013-01-19 15:26:00,67.6,33.3,29.94,North,351,1.0,2.0,28,0.00,,,0.00,Wunderground v.1.15,2013-01-19 21:26:00,
2013-01-19 15:46:00,66.2,33.0,29.95,NW,307,2.0,2.0,29,0.00,,,0.00,Wunderground v.1.15,2013-01-19 21:46:00,
2013-01-19 15:56:00,65.3,32.2,29.96,SW,232,3.0,3.0,29,0.00,,,0.00,Wunderground v.1.15,2013-01-19 21:56:00,
2013-01-19 16:06:00,64.7,32.5,29.96,WNW,299,2.0,3.0,30,0.00,,,0.00,Wunderground v.1.15,2013-01-19 22:06:00,
2013-01-19 16:26:00,63.9,32.6,29.97,West,278,1.0,1.0,31,0.00,,,0.00,Wunderground v.1.15,2013-01-19 22:26:00,
2013-01-19 16:36:00,63.7,33.3,29.98,WSW,248,1.0,2.0,32,0.00,,,0.00,Wunderground v.1.15,2013-01-19 22:36:00,
2013-01-19 16:46:00,63.3,32.9,29.98,WNW,293,2.0,2.0,32,0.00,,,0.00,Wunderground v.1.15,2013-01-19 22:46:00,
2013-01-19 16:56:00,62.8,32.5,29.98,WNW,290,1.0,1.0,32,0.00,,,0.00,Wunderground v.1.15,2013-01-19 22:56:00,
2013-01-19 17:11:00,61.4,32.8,29.99,NW,307,0.0,0.0,34,0.00,,,0.00,Wunderground v.1.15,2013-01-19 23:11:00,
2013-01-19 17:21:00,60.8,33.0,29.99,WNW,292,1.0,2.0,35,0.00,,,0.00,Wunderground v.1.15,2013-01-19 23:21:00,
2013-01-19 17:36:00,59.5,32.5,30.00,West,277,0.0,0.0,36,0.00,,,0.00,Wunderground v.1.15,2013-01-19 23:36:00,
2013-01-19 17:41:00,59.1,32.8,30.00,WNW,300,0.0,0.0,37,0.00,,,0.00,Wunderground v.1.15,2013-01-19 23:41:00,
2013-01-19 17:46:00,58.7,33.1,30.00,WSW,246,0.0,0.0,38,0.00,,,0.00,Wunderground v.1.15,2013-01-19 23:46:00,
2013-01-19 18:01:00,58.1,33.2,30.01,WNW,295,0.0,0.0,39,0.00,,,0.00,Wunderground v.1.15,2013-01-20 00:01:00,
2013-01-19 18:11:00,58.1,33.2,30.02,West,274,0.0,2.0,39,0.00,,,0.00,Wunderground v.1.15,2013-01-20 00:11:00,
2013-01-19 18:16:00,58.3,33.4,30.02,SE,132,1.0,2.0,39,0.00,,,0.00,Wunderground v.1.15,2013-01-20 00:16:00,
2013-01-19 18:26:00,58.0,33.2,30.02,WNW,283,0.0,1.0,39,0.00,,,0.00,Wunderground v.1.15,2013-01-20 00:26:00,
2013-01-19 20:31:00,55.5,33.3,30.08,NW,307,2.0,6.0,43,0.00,,,0.00,Wunderground v.1.15,2013-01-20 02:31:00,
2013-01-19 20:36:00,55.6,33.4,30.08,SW,221,2.0,6.0,43,0.00,,,0.00,Wunderground v.1.15,2013-01-20 02:36:00,
2013-01-19 20:46:00,55.4,33.3,30.08,WNW,298,2.0,2.0,43,0.00,,,0.00,Wunderground v.1.15,2013-01-20 02:46:00,
2013-01-19 20:51:00,55.3,33.7,30.08,North,6,2.0,2.0,44,0.00,,,0.00,Wunderground v.1.15,2013-01-20 02:51:00,
2013-01-19 20:56:00,55.0,33.5,30.09,WNW,294,1.0,3.0,44,0.00,,,0.00,Wunderground v.1.15,2013-01-20 02:56:00,
2013-01-19 21:06:00,54.5,33.6,30.09,NW,304,1.0,2.0,45,0.00,,,0.00,Wunderground v.1.15,2013-01-20 03:06:00,
2013-01-19 21:21:00,54.1,33.8,30.09,NW,307,1.0,1.0,46,0.00,,,0.00,Wunderground v.1.15,2013-01-20 03:21:00,
2013-01-19 21:31:00,53.7,33.9,30.10,NW,307,1.0,1.0,47,0.00,,,0.00,Wunderground v.1.15,2013-01-20 03:31:00,
2013-01-19 21:41:00,53.4,33.7,30.10,West,267,1.0,1.0,47,0.00,,,0.00,Wunderground v.1.15,2013-01-20 03:41:00,
2013-01-19 21:46:00,53.1,33.9,30.10,West,274,1.0,1.0,48,0.00,,,0.00,Wunderground v.1.15,2013-01-20 03:46:00,
2013-01-19 22:01:00,52.7,33.5,30.11,SW,230,1.0,2.0,48,0.00,,,0.00,Wunderground v.1.15,2013-01-20 04:01:00,
2013-01-19 22:06:00,52.8,34.2,30.11,West,271,1.0,2.0,49,0.00,,,0.00,Wunderground v.1.15,2013-01-20 04:06:00,
2013-01-19 22:21:00,52.3,34.2,30.12,NW,312,1.0,1.0,50,0.00,,,0.00,Wunderground v.1.15,2013-01-20 04:21:00,
2013-01-19 22:26:00,52.0,33.4,30.12,NW,309,1.0,1.0,49,0.00,,,0.00,Wunderground v.1.15,2013-01-20 04:26:00,
2013-01-19 22:46:00,51.5,33.5,30.13,North,1,1.0,1.0,50,0.00,,,0.00,Wunderground v.1.15,2013-01-20 04:46:00,
2013-01-19 23:01:00,50.2,32.3,30.14,North,353,0.0,0.0,50,0.00,,,0.00,Wunderground v.1.15,2013-01-20 05:01:00,
2013-01-19 23:11:00,50.3,32.4,30.14,WSW,252,1.0,2.0,50,0.00,,,0.00,Wunderground v.1.15,2013-01-20 05:11:00,
2013-01-19 23:16:00,50.3,32.4,30.14,WNW,283,2.0,3.0,50,0.00,,,0.00,Wunderground v.1.15,2013-01-20 05:16:00,
2013-01-19 23:21:00,50.1,32.2,30.14,NW,305,2.0,2.0,50,0.00,,,0.00,Wunderground v.1.15,2013-01-20 05:21:00,
2013-01-19 23:31:00,49.5,32.1,30.15,North,5,0.0,0.0,51,0.00,,,0.00,Wunderground v.1.15,2013-01-20 05:31:00,
2013-01-19 23:36:00,49.2,32.3,30.15,West,274,0.0,0.0,52,0.00,,,0.00,Wunderground v.1.15,2013-01-20 05:36:00,
2013-01-19 23:41:00,48.8,31.9,30.15,NW,306,0.0,3.0,52,0.00,,,0.00,Wunderground v.1.15,2013-01-20 05:41:00,
2013-01-19 23:51:00,48.5,32.1,30.15,SSE,151,0.0,0.0,53,0.00,,,0.00,Wunderground v.1.15,2013-01-20 05:51:00,
2013-01-19 23:56:00,48.1,32.2,30.16,SSE,158,0.0,0.0,54,0.00,,,0.00,Wunderground v.1.15,2013-01-20 05:56:00,